Gwynedd, United Kingdom
Current Conditions -  °F | °C
As of 1:50 PM on Saturday 25 Oct 2014 (Local Time) from EGOV Reporting Station
Scattered Clouds Scattered Clouds  
Wind Chill: 57°   Ceiling: Unl
Heat Index: 57°   Visibility: 6mi
Dew Point: 48°   Wind: 23mph
Humidity: 72%   Direction: 220°SW
Pressure: 29.91"   Gusts: NA
Location:  52.8°N, 4°W
Report Text: EGOV 251250Z AUTO 22020KT 9999 FEW030/// SCT034/// 14/09 Q1013
Loading
Personal Weather Stations






























Interactive Weather Map
Tropical Storm Tracking
New forecast layout! Learn more

10-Day Weather Forecast

Advertisements
Track Severe Weather on mobile